createdAt,value
2022-08-17T00:02:26.600Z,6.15
2022-08-17T00:07:21.699Z,4.63
2022-08-17T00:09:48.754Z,5.43
2022-08-17T00:12:51.380Z,7.22
2022-08-17T00:15:04.235Z,6.93
2022-08-17T00:17:31.304Z,8.23
2022-08-17T00:19:58.331Z,7.93
2022-08-17T00:22:33.778Z,9.18
2022-08-17T00:25:04.587Z,8.48
2022-08-17T00:27:31.635Z,7.50
2022-08-17T00:29:58.706Z,6.68
2022-08-17T00:33:14.778Z,8.68
2022-08-17T00:35:16.263Z,6.50
2022-08-17T00:37:43.460Z,8.57
2022-08-17T00:40:13.453Z,6.78
2022-08-17T00:42:41.303Z,7.20
2022-08-17T00:45:11.300Z,7.40
2022-08-17T00:47:38.632Z,8.20
2022-08-17T00:50:10.503Z,7.93
2022-08-17T00:52:48.636Z,10.50
2022-08-17T00:55:15.818Z,8.57
2022-08-17T00:57:53.357Z,12.18
2022-08-17T01:00:26.944Z,10.43
2022-08-17T01:03:07.967Z,8.52
2022-08-17T01:05:42.305Z,9.13
2022-08-17T01:08:13.167Z,6.57
2022-08-17T01:10:59.259Z,6.30
2022-08-17T01:13:40.339Z,7.60
2022-08-17T01:16:16.195Z,11.27
2022-08-17T01:18:46.083Z,10.77
2022-08-17T01:21:20.178Z,6.75
2022-08-17T01:23:47.316Z,8.60
2022-08-17T01:26:14.368Z,17.77
2022-08-17T01:28:53.852Z,19.75
2022-08-17T01:31:24.676Z,15.95
2022-08-17T01:33:52.056Z,11.60
2022-08-17T01:36:21.109Z,8.55
2022-08-17T01:38:48.229Z,6.57
2022-08-17T01:41:16.786Z,8.65
2022-08-17T01:43:52.414Z,8.05
2022-08-17T01:46:27.362Z,6.00
2022-08-17T01:48:56.585Z,5.68
2022-08-17T01:51:30.642Z,4.72
2022-08-17T01:54:01.002Z,10.95
2022-08-17T01:56:30.468Z,8.60
2022-08-17T01:58:57.766Z,6.82
2022-08-17T02:01:28.390Z,10.45
2022-08-17T02:04:00.441Z,6.18
2022-08-17T02:06:31.582Z,6.88
2022-08-17T02:09:16.862Z,7.60
2022-08-17T02:11:45.327Z,7.50
2022-08-17T02:14:14.081Z,5.07
2022-08-17T02:16:41.692Z,7.47
2022-08-17T02:19:12.322Z,7.78
2022-08-17T02:21:41.604Z,12.77
2022-08-17T02:24:11.993Z,10.70
2022-08-17T02:26:39.204Z,6.53
2022-08-17T02:29:06.297Z,5.70
2022-08-17T02:31:33.800Z,7.68
2022-08-17T02:34:04.678Z,8.73
2022-08-17T02:36:35.861Z,8.35
2022-08-17T02:39:04.842Z,7.63
2022-08-17T02:41:32.787Z,9.30
2022-08-17T02:44:00.319Z,6.55
2022-08-17T02:46:28.519Z,8.95
2022-08-17T02:48:55.986Z,7.95
2022-08-17T02:51:23.149Z,10.15
2022-08-17T02:53:50.322Z,10.73
2022-08-17T02:56:17.518Z,6.93
2022-08-17T02:58:44.662Z,9.93
2022-08-17T03:01:12.929Z,8.80
2022-08-17T03:03:40.509Z,8.32
2022-08-17T03:06:08.525Z,12.10
2022-08-17T03:08:36.668Z,12.82
2022-08-17T03:11:04.142Z,14.23
2022-08-17T03:13:31.516Z,8.27
2022-08-17T03:15:58.990Z,10.75
2022-08-17T03:18:27.369Z,13.95
2022-08-17T03:20:56.867Z,9.93
2022-08-17T03:23:25.551Z,8.02
2022-08-17T03:25:53.940Z,11.55
2022-08-17T03:28:23.168Z,8.63
2022-08-17T03:30:51.827Z,8.82
2022-08-17T03:33:19.623Z,10.10
2022-08-17T03:35:47.275Z,15.55
2022-08-17T03:38:15.998Z,10.63
2022-08-17T03:40:56.514Z,11.02
2022-08-17T03:43:30.015Z,12.07
2022-08-17T03:46:28.918Z,16.02
2022-08-17T03:49:23.190Z,10.20
2022-08-17T03:52:08.852Z,7.97
2022-08-17T03:54:54.516Z,9.05
2022-08-17T03:57:21.790Z,8.40
2022-08-17T03:59:48.895Z,11.20
2022-08-17T04:02:24.445Z,11.13
2022-08-17T04:04:52.651Z,10.63
2022-08-17T04:07:23.071Z,12.00
2022-08-17T04:09:50.626Z,12.18
2022-08-17T04:12:20.122Z,10.57
2022-08-17T04:14:52.659Z,13.73
2022-08-17T04:17:26.295Z,10.65
2022-08-17T04:19:54.166Z,13.15
2022-08-17T04:22:31.347Z,13.57
2022-08-17T04:25:03.215Z,13.65
2022-08-17T04:27:30.239Z,11.85
2022-08-17T04:29:57.285Z,15.30
2022-08-17T04:33:03.747Z,12.30
2022-08-17T04:35:11.624Z,11.40
2022-08-17T04:37:38.758Z,12.23
2022-08-17T04:40:25.950Z,8.85
2022-08-17T04:43:03.118Z,11.88
2022-08-17T04:45:32.049Z,10.40
2022-08-17T04:48:00.329Z,13.77
2022-08-17T04:50:27.845Z,11.95
2022-08-17T04:52:55.021Z,12.98
2022-08-17T04:55:22.668Z,10.60
2022-08-17T04:57:49.698Z,11.90
2022-08-17T05:00:16.814Z,9.18
2022-08-17T05:02:51.202Z,13.48
2022-08-17T05:05:25.291Z,11.00
2022-08-17T05:07:54.780Z,10.90
2022-08-17T05:10:23.236Z,10.25
2022-08-17T05:13:09.512Z,12.18
2022-08-17T05:15:39.520Z,12.48
2022-08-17T05:18:12.704Z,8.95
2022-08-17T05:20:40.673Z,11.02
2022-08-17T05:23:11.457Z,11.05
2022-08-17T05:25:48.300Z,14.15
2022-08-17T05:28:18.347Z,16.67
2022-08-17T05:30:49.212Z,9.80
2022-08-17T05:33:26.719Z,8.57
2022-08-17T05:35:55.464Z,9.25
2022-08-17T05:38:24.651Z,10.38
2022-08-17T05:40:52.809Z,8.82
2022-08-17T05:43:23.458Z,7.82
2022-08-17T05:46:22.777Z,10.52
2022-08-17T05:48:59.437Z,5.22
2022-08-17T05:51:38.453Z,3.72
2022-08-17T05:54:36.204Z,4.72
2022-08-17T05:57:18.876Z,5.25
2022-08-17T06:00:07.898Z,6.22
2022-08-17T06:03:01.664Z,4.78
2022-08-17T06:06:06.259Z,7.43
2022-08-17T06:08:33.253Z,8.85
2022-08-17T06:11:26.061Z,4.10
2022-08-17T06:14:28.587Z,5.13
2022-08-17T06:17:01.243Z,6.47
2022-08-17T06:19:39.271Z,5.05
2022-08-17T06:22:08.985Z,5.78
2022-08-17T06:24:46.729Z,4.28
2022-08-17T06:27:30.665Z,4.13
2022-08-17T06:32:30.047Z,6.97
2022-08-17T06:35:07.655Z,5.13
2022-08-17T06:37:50.964Z,4.20
2022-08-17T06:40:46.110Z,4.82
2022-08-17T06:43:25.089Z,7.13
2022-08-17T06:46:19.428Z,5.32
2022-08-17T06:49:12.888Z,4.07
2022-08-17T06:52:12.608Z,5.68
2022-08-17T06:55:06.526Z,3.47
2022-08-17T06:57:37.992Z,6.03
2022-08-17T07:00:13.977Z,5.20
2022-08-17T07:02:53.163Z,6.57
2022-08-17T07:05:24.638Z,5.25
2022-08-17T07:08:16.919Z,6.65
2022-08-17T07:10:49.141Z,3.83
2022-08-17T07:13:34.110Z,7.38
2022-08-17T07:16:37.736Z,2.90
2022-08-17T07:19:06.291Z,7.57
2022-08-17T07:22:07.621Z,7.15
2022-08-17T07:24:44.871Z,5.95
2022-08-17T07:27:33.300Z,7.38
2022-08-17T07:30:11.272Z,6.97
2022-08-17T07:32:54.103Z,11.32
2022-08-17T07:35:40.941Z,11.85
2022-08-17T07:38:28.654Z,10.05
2022-08-17T07:41:02.517Z,11.52
2022-08-17T07:43:35.635Z,10.90
2022-08-17T07:46:30.469Z,13.00
2022-08-17T07:49:17.717Z,17.85
2022-08-17T07:51:45.863Z,12.13
2022-08-17T07:54:14.869Z,12.15
2022-08-17T07:57:04.925Z,15.93
2022-08-17T07:59:43.334Z,15.57
2022-08-17T08:02:29.521Z,16.50
2022-08-17T08:05:06.672Z,17.60
2022-08-17T08:07:52.541Z,15.32
2022-08-17T08:10:28.577Z,11.60
2022-08-17T08:13:22.871Z,18.40
2022-08-17T08:15:54.654Z,14.57
2022-08-17T08:18:38.567Z,10.68
2022-08-17T08:21:22.512Z,18.38
2022-08-17T08:24:02.392Z,17.95
2022-08-17T08:26:49.855Z,12.30
2022-08-17T08:29:39.905Z,15.15
2022-08-17T08:32:22.157Z,14.02
2022-08-17T08:35:09.271Z,17.10
2022-08-17T08:37:50.234Z,16.30
2022-08-17T08:40:41.455Z,15.93
2022-08-17T08:43:27.577Z,21.48
2022-08-17T08:46:00.361Z,16.15
2022-08-17T08:49:10.058Z,18.10
2022-08-17T08:51:58.112Z,12.10
2022-08-17T08:54:43.825Z,11.57
2022-08-17T08:57:30.935Z,15.18
2022-08-17T09:00:15.014Z,10.65
2022-08-17T09:03:17.663Z,13.65
2022-08-17T09:06:33.417Z,12.10
2022-08-17T09:09:35.279Z,12.85
2022-08-17T09:12:05.403Z,11.65
2022-08-17T09:14:45.210Z,13.50
2022-08-17T09:17:25.770Z,14.85
2022-08-17T09:20:28.047Z,13.25
2022-08-17T09:23:18.944Z,14.30
2022-08-17T09:26:06.665Z,15.13
2022-08-17T09:28:37.262Z,14.85
2022-08-17T09:31:11.349Z,12.73
2022-08-17T09:33:47.369Z,17.75
2022-08-17T09:36:28.379Z,14.98
2022-08-17T09:39:06.395Z,12.57
2022-08-17T09:41:51.553Z,14.30
2022-08-17T09:44:43.203Z,14.02
2022-08-17T09:47:46.882Z,13.60
2022-08-17T09:51:05.299Z,18.45
2022-08-17T09:53:27.179Z,14.75
2022-08-17T09:56:15.331Z,14.27
2022-08-17T09:58:55.823Z,14.00
2022-08-17T10:01:36.999Z,16.50
2022-08-17T10:04:29.670Z,14.52
2022-08-17T10:07:07.368Z,12.15
2022-08-17T10:09:40.144Z,17.17
2022-08-17T10:12:20.558Z,14.40
2022-08-17T10:15:07.993Z,17.98
2022-08-17T10:18:08.821Z,14.60
2022-08-17T10:21:19.401Z,13.07
2022-08-17T10:24:09.573Z,10.85
2022-08-17T10:26:55.958Z,12.90
2022-08-17T10:29:48.499Z,12.45
2022-08-17T10:32:41.153Z,16.55
2022-08-17T10:35:26.658Z,15.07
2022-08-17T10:38:25.778Z,13.23
2022-08-17T10:41:13.561Z,12.73
2022-08-17T10:44:30.633Z,11.82
2022-08-17T10:46:57.793Z,8.93
2022-08-17T10:49:33.405Z,17.50
2022-08-17T10:52:25.072Z,13.40
2022-08-17T10:54:58.026Z,12.82
2022-08-17T11:00:19.007Z,15.50
2022-08-17T11:02:52.803Z,16.38
2022-08-17T11:05:33.891Z,13.95
2022-08-17T11:08:19.038Z,13.50
2022-08-17T11:10:58.741Z,15.00
2022-08-17T11:14:04.927Z,13.60
2022-08-17T11:17:05.747Z,14.45
2022-08-17T11:19:58.448Z,14.50
2022-08-17T11:22:58.417Z,11.45
2022-08-17T11:25:44.093Z,15.32
2022-08-17T11:28:27.215Z,12.00
2022-08-17T11:31:03.696Z,11.65
2022-08-17T11:33:36.845Z,13.60
2022-08-17T11:36:33.053Z,11.23
2022-08-17T11:39:05.003Z,16.60
2022-08-17T11:41:45.897Z,13.75
2022-08-17T11:44:42.500Z,13.15
2022-08-17T11:47:33.938Z,12.45
2022-08-17T11:50:28.950Z,12.85
2022-08-17T11:52:56.189Z,13.40
2022-08-17T11:55:36.298Z,16.10
2022-08-17T11:58:04.441Z,13.38
2022-08-17T12:01:20.709Z,12.45
2022-08-17T12:03:57.306Z,14.23
2022-08-17T12:06:30.300Z,14.00
2022-08-17T12:09:27.804Z,13.02
2022-08-17T12:12:12.799Z,18.13
2022-08-17T12:15:09.491Z,12.63
2022-08-17T12:17:41.897Z,13.27
2022-08-17T12:23:21.770Z,10.98
2022-08-17T12:26:05.634Z,14.27
2022-08-17T12:28:37.349Z,16.00
2022-08-17T12:31:07.990Z,16.70
2022-08-17T12:33:37.534Z,17.77
2022-08-17T12:36:19.863Z,13.50
2022-08-17T12:38:57.599Z,10.43
2022-08-17T12:41:34.422Z,14.40
2022-08-17T12:44:09.951Z,12.10
2022-08-17T12:47:02.190Z,19.48
2022-08-17T12:49:31.165Z,13.98
2022-08-17T12:52:15.025Z,14.00
2022-08-17T12:57:21.798Z,13.90
2022-08-17T12:59:55.681Z,12.93
2022-08-17T13:02:31.577Z,12.18
2022-08-17T13:05:01.288Z,11.60
2022-08-17T13:07:36.228Z,13.52
2022-08-17T13:10:04.699Z,16.30
2022-08-17T13:12:35.341Z,16.88
2022-08-17T13:15:02.567Z,15.68
2022-08-17T13:17:36.238Z,12.77
2022-08-17T13:20:06.453Z,12.85
2022-08-17T13:22:33.878Z,14.23
2022-08-17T13:25:05.679Z,13.82
2022-08-17T13:27:34.015Z,15.10
2022-08-17T13:30:12.579Z,14.23
2022-08-17T13:32:47.615Z,12.82
2022-08-17T13:35:39.593Z,12.55
2022-08-17T13:38:36.197Z,12.80
2022-08-17T13:41:06.640Z,11.45
2022-08-17T13:43:45.170Z,12.75
2022-08-17T13:46:20.784Z,13.65
2022-08-17T13:49:02.643Z,14.70
2022-08-17T13:51:50.431Z,13.80
2022-08-17T13:54:31.472Z,13.90
2022-08-17T13:57:06.534Z,11.70
2022-08-17T13:59:53.079Z,13.93
2022-08-17T14:02:21.794Z,13.68
2022-08-17T14:04:49.637Z,9.38
2022-08-17T14:07:17.023Z,15.00
2022-08-17T14:09:52.606Z,11.93
2022-08-17T14:12:25.262Z,14.18
2022-08-17T14:14:53.643Z,12.47
2022-08-17T14:17:23.078Z,11.55
2022-08-17T14:19:51.464Z,13.25
2022-08-17T14:22:40.505Z,11.82
2022-08-17T14:25:10.485Z,11.90
2022-08-17T14:27:47.488Z,12.35
2022-08-17T14:30:20.681Z,14.25
2022-08-17T14:32:52.239Z,11.52
2022-08-17T14:35:22.196Z,11.13
2022-08-17T14:37:50.483Z,10.07
2022-08-17T14:40:21.114Z,11.38
2022-08-17T14:42:48.525Z,10.10
2022-08-17T14:45:30.487Z,13.18
2022-08-17T14:48:10.138Z,13.73
2022-08-17T14:50:41.182Z,8.48
2022-08-17T14:53:10.175Z,9.73
2022-08-17T14:55:40.083Z,13.80
2022-08-17T14:58:08.693Z,12.13
2022-08-17T15:00:36.397Z,11.50
2022-08-17T15:03:03.726Z,11.52
2022-08-17T15:05:34.457Z,14.10
2022-08-17T15:08:02.762Z,16.88
2022-08-17T15:10:30.705Z,12.13
2022-08-17T15:12:58.325Z,10.75
2022-08-17T15:15:26.219Z,12.38
2022-08-17T15:17:53.505Z,13.55
2022-08-17T15:20:24.968Z,13.27
2022-08-17T15:22:56.380Z,12.15
2022-08-17T15:25:25.685Z,13.30
2022-08-17T15:27:52.994Z,13.77
2022-08-17T15:30:20.673Z,10.77
2022-08-17T15:32:54.059Z,15.90
2022-08-17T15:35:28.109Z,10.13
2022-08-17T15:38:11.062Z,4.85
2022-08-17T15:40:49.679Z,8.50
2022-08-17T15:43:27.347Z,12.02
2022-08-17T15:46:00.463Z,5.80
2022-08-17T15:48:42.171Z,9.80
2022-08-17T15:51:15.925Z,6.25
2022-08-17T15:56:11.513Z,8.13
2022-08-17T15:58:39.047Z,9.23
2022-08-17T16:01:14.901Z,17.67
2022-08-17T16:04:04.112Z,18.15
2022-08-17T16:06:32.030Z,14.68
2022-08-17T16:09:00.582Z,15.80
2022-08-17T16:11:27.668Z,9.48
2022-08-17T16:13:56.053Z,10.77
2022-08-17T16:16:24.014Z,14.18
2022-08-17T16:18:54.505Z,14.30
2022-08-17T16:21:26.127Z,11.85
2022-08-17T16:23:59.293Z,13.48
2022-08-17T16:26:28.031Z,12.88
2022-08-17T16:28:55.776Z,14.27
2022-08-17T16:31:23.031Z,13.60
2022-08-17T16:34:16.047Z,13.00
2022-08-17T16:36:38.537Z,15.50
2022-08-17T16:39:05.861Z,19.58
2022-08-17T16:41:48.048Z,11.55
2022-08-17T16:44:17.024Z,17.67
2022-08-17T16:46:45.802Z,16.10
2022-08-17T16:49:31.915Z,15.27
2022-08-17T16:52:03.621Z,19.63
2022-08-17T16:54:30.925Z,13.70
2022-08-17T16:56:57.954Z,17.92
2022-08-17T16:59:30.782Z,19.30
2022-08-17T17:02:05.139Z,21.17
2022-08-17T17:04:34.988Z,20.73
2022-08-17T17:07:38.027Z,17.08
2022-08-17T17:10:20.194Z,21.10
2022-08-17T17:13:02.208Z,20.30
2022-08-17T17:18:11.875Z,17.92
2022-08-17T17:20:50.605Z,20.85
2022-08-17T17:23:43.152Z,18.17
2022-08-17T17:26:19.499Z,19.95
2022-08-17T17:29:11.137Z,15.50
2022-08-17T17:31:56.985Z,19.00
2022-08-17T17:34:26.472Z,13.48
2022-08-17T17:36:58.164Z,14.15
2022-08-17T17:39:43.897Z,16.15
2022-08-17T17:42:14.848Z,19.83
2022-08-17T17:45:09.187Z,14.40
2022-08-17T17:47:37.225Z,10.32
2022-08-17T17:50:06.253Z,11.80
2022-08-17T17:52:41.397Z,16.38
2022-08-17T17:55:18.826Z,8.07
2022-08-17T17:58:06.754Z,16.95
2022-08-17T18:00:38.108Z,14.73
2022-08-17T18:03:43.260Z,16.00
2022-08-17T18:06:34.331Z,12.93
2022-08-17T18:09:23.445Z,17.02
2022-08-17T18:11:59.131Z,11.98
2022-08-17T18:14:51.308Z,12.30
2022-08-17T18:17:18.572Z,7.32
2022-08-17T18:19:47.395Z,6.05
2022-08-17T18:22:15.756Z,9.55
2022-08-17T18:24:46.086Z,7.93
2022-08-17T18:27:38.821Z,9.98
2022-08-17T18:30:14.739Z,9.80
2022-08-17T18:32:44.785Z,11.30
2022-08-17T18:35:11.779Z,11.73
2022-08-17T18:37:47.909Z,10.43
2022-08-17T18:40:29.884Z,7.20
2022-08-17T18:43:24.958Z,11.10
2022-08-17T18:45:54.399Z,14.38
2022-08-17T18:48:26.825Z,16.02
2022-08-17T18:50:59.706Z,14.25
2022-08-17T18:53:33.943Z,19.63
2022-08-17T18:56:30.484Z,14.90
2022-08-17T18:59:22.318Z,14.98
2022-08-17T19:02:27.351Z,12.35
2022-08-17T19:05:27.449Z,17.15
2022-08-17T19:07:55.084Z,17.80
2022-08-17T19:10:33.582Z,13.25
2022-08-17T19:13:24.445Z,20.27
2022-08-17T19:16:12.017Z,13.25
2022-08-17T19:19:05.234Z,19.40
2022-08-17T19:21:38.201Z,19.27
2022-08-17T19:24:20.033Z,24.55
2022-08-17T19:26:55.671Z,21.75
2022-08-17T19:29:38.853Z,23.13
2022-08-17T19:32:09.149Z,22.38
2022-08-17T19:34:38.635Z,28.35
2022-08-17T19:37:40.853Z,22.80
2022-08-17T19:40:35.151Z,23.48
2022-08-17T19:43:26.273Z,23.13
2022-08-17T19:46:12.601Z,26.88
2022-08-17T19:48:46.219Z,25.08
2022-08-17T19:54:05.879Z,23.95
2022-08-17T19:56:56.032Z,27.92
2022-08-17T19:59:49.148Z,22.75
2022-08-17T20:02:36.149Z,30.00
2022-08-17T20:05:10.893Z,21.77
2022-08-17T20:07:53.150Z,26.58
2022-08-17T20:10:29.207Z,25.92
2022-08-17T20:13:03.501Z,16.63
2022-08-17T20:15:35.192Z,20.73
2022-08-17T20:18:07.557Z,16.15
2022-08-17T20:20:49.430Z,19.98
2022-08-17T20:23:50.232Z,14.90
2022-08-17T20:26:27.186Z,19.80
2022-08-17T20:29:37.763Z,14.10
2022-08-17T20:32:29.590Z,18.30
2022-08-17T20:35:25.534Z,13.38
2022-08-17T20:38:13.647Z,15.40
2022-08-17T20:41:01.333Z,11.75
2022-08-17T20:43:34.090Z,15.07
2022-08-17T20:46:33.377Z,16.63
2022-08-17T20:49:27.310Z,16.35
2022-08-17T20:52:08.329Z,22.00
2022-08-17T20:55:04.985Z,15.23
2022-08-17T20:57:32.402Z,17.60
2022-08-17T21:00:28.409Z,17.15
2022-08-17T21:03:27.679Z,24.33
2022-08-17T21:06:18.038Z,18.00
2022-08-17T21:08:53.916Z,20.23
2022-08-17T21:11:57.160Z,19.83
2022-08-17T21:14:41.212Z,24.00
2022-08-17T21:17:29.828Z,20.23
2022-08-17T21:20:12.081Z,23.88
2022-08-17T21:23:07.130Z,25.38
2022-08-17T21:26:03.778Z,16.65
2022-08-17T21:29:00.872Z,14.50
2022-08-17T21:32:05.542Z,13.30
2022-08-17T21:34:43.355Z,14.75
2022-08-17T21:37:19.788Z,13.80
2022-08-17T21:40:00.117Z,17.70
2022-08-17T21:42:34.728Z,14.02
2022-08-17T21:45:24.721Z,12.55
2022-08-17T21:48:14.889Z,13.20
2022-08-17T21:50:45.410Z,11.05
2022-08-17T21:53:22.554Z,13.32
2022-08-17T21:55:50.657Z,15.98
2022-08-17T21:58:40.547Z,11.05
2022-08-17T22:01:23.008Z,13.82
2022-08-17T22:04:04.692Z,10.77
2022-08-17T22:06:37.283Z,11.23
2022-08-17T22:09:43.176Z,11.27
2022-08-17T22:12:21.378Z,14.02
2022-08-17T22:15:00.904Z,13.23
2022-08-17T22:17:36.307Z,16.52
2022-08-17T22:20:15.028Z,15.20
2022-08-17T22:23:20.655Z,14.88
2022-08-17T22:26:00.325Z,13.15
2022-08-17T22:28:53.671Z,15.07
2022-08-17T22:31:30.058Z,14.53
2022-08-17T22:34:02.987Z,11.32
2022-08-17T22:36:31.299Z,11.48
2022-08-17T22:39:02.005Z,10.20
2022-08-17T22:41:34.851Z,19.02
2022-08-17T22:44:47.194Z,15.50
2022-08-17T22:47:19.272Z,10.10
2022-08-17T22:49:53.349Z,11.82
2022-08-17T22:52:57.738Z,14.15
2022-08-17T22:55:44.464Z,13.55
2022-08-17T22:58:38.365Z,11.80
2022-08-17T23:01:31.671Z,12.20
2022-08-17T23:04:01.955Z,12.75
2022-08-17T23:06:30.077Z,11.38
2022-08-17T23:08:58.030Z,11.68
2022-08-17T23:11:42.830Z,11.80
2022-08-17T23:14:16.066Z,11.35
2022-08-17T23:16:43.479Z,10.10
2022-08-17T23:19:16.339Z,9.80
2022-08-17T23:21:47.400Z,8.73
2022-08-17T23:24:20.187Z,10.98
2022-08-17T23:26:47.798Z,8.80
2022-08-17T23:29:15.061Z,9.63
2022-08-17T23:31:42.269Z,12.73
2022-08-17T23:34:13.420Z,13.50
2022-08-17T23:36:41.421Z,10.63
2022-08-17T23:39:08.611Z,13.90
2022-08-17T23:41:40.418Z,15.10
2022-08-17T23:44:07.805Z,12.25
2022-08-17T23:46:35.162Z,10.55
2022-08-17T23:49:03.419Z,10.23
2022-08-17T23:51:42.901Z,8.05
2022-08-17T23:54:43.980Z,8.70
2022-08-17T23:57:14.589Z,9.23
2022-08-17T23:59:44.054Z,10.90
